sensor_id;sensor_type;location;lat;lon;timestamp;P1;durP1;ratioP1;P2;durP2;ratioP2
3867;SDS011;1949;48.152;11.528;2022-11-15T00:02:03;8.40;;;3.23;;
3867;SDS011;1949;48.152;11.528;2022-11-15T00:04:36;5.23;;;3.27;;
3867;SDS011;1949;48.152;11.528;2022-11-15T00:07:06;3.40;;;2.90;;
3867;SDS011;1949;48.152;11.528;2022-11-15T00:09:34;4.97;;;2.70;;
3867;SDS011;1949;48.152;11.528;2022-11-15T00:11:59;3.90;;;2.50;;
3867;SDS011;1949;48.152;11.528;2022-11-15T00:14:25;6.40;;;2.93;;
3867;SDS011;1949;48.152;11.528;2022-11-15T00:16:51;2.93;;;2.20;;
3867;SDS011;1949;48.152;11.528;2022-11-15T00:19:16;5.13;;;3.43;;
3867;SDS011;1949;48.152;11.528;2022-11-15T00:21:42;3.93;;;2.70;;
3867;SDS011;1949;48.152;11.528;2022-11-15T00:24:09;5.20;;;2.60;;
3867;SDS011;1949;48.152;11.528;2022-11-15T00:26:34;4.73;;;2.70;;
3867;SDS011;1949;48.152;11.528;2022-11-15T00:29:02;4.97;;;2.80;;
3867;SDS011;1949;48.152;11.528;2022-11-15T00:31:28;4.60;;;2.40;;
3867;SDS011;1949;48.152;11.528;2022-11-15T00:33:54;3.63;;;2.60;;
3867;SDS011;1949;48.152;11.528;2022-11-15T00:36:20;4.70;;;2.50;;
3867;SDS011;1949;48.152;11.528;2022-11-15T00:38:45;5.33;;;2.53;;
3867;SDS011;1949;48.152;11.528;2022-11-15T00:41:11;4.43;;;2.80;;
3867;SDS011;1949;48.152;11.528;2022-11-15T00:43:37;4.67;;;2.60;;
3867;SDS011;1949;48.152;11.528;2022-11-15T00:46:11;2.90;;;2.30;;
3867;SDS011;1949;48.152;11.528;2022-11-15T00:48:41;4.27;;;2.43;;
3867;SDS011;1949;48.152;11.528;2022-11-15T00:51:14;5.20;;;3.20;;
3867;SDS011;1949;48.152;11.528;2022-11-15T00:53:41;5.33;;;2.13;;
3867;SDS011;1949;48.152;11.528;2022-11-15T00:56:07;4.20;;;2.83;;
3867;SDS011;1949;48.152;11.528;2022-11-15T00:58:33;3.27;;;2.43;;
3867;SDS011;1949;48.152;11.528;2022-11-15T01:01:10;7.00;;;2.63;;
3867;SDS011;1949;48.152;11.528;2022-11-15T01:06:10;5.83;;;3.17;;
3867;SDS011;1949;48.152;11.528;2022-11-15T01:08:38;8.70;;;3.53;;
3867;SDS011;1949;48.152;11.528;2022-11-15T01:11:06;4.17;;;2.80;;
3867;SDS011;1949;48.152;11.528;2022-11-15T01:13:39;4.03;;;2.77;;
3867;SDS011;1949;48.152;11.528;2022-11-15T01:16:06;5.10;;;3.03;;
3867;SDS011;1949;48.152;11.528;2022-11-15T01:18:35;5.60;;;2.70;;
3867;SDS011;1949;48.152;11.528;2022-11-15T01:21:19;4.10;;;2.67;;
3867;SDS011;1949;48.152;11.528;2022-11-15T01:23:45;4.40;;;2.63;;
3867;SDS011;1949;48.152;11.528;2022-11-15T01:26:12;11.03;;;2.83;;
3867;SDS011;1949;48.152;11.528;2022-11-15T01:28:40;5.57;;;2.63;;
3867;SDS011;1949;48.152;11.528;2022-11-15T01:31:11;5.50;;;2.87;;
3867;SDS011;1949;48.152;11.528;2022-11-15T01:33:39;4.67;;;3.10;;
3867;SDS011;1949;48.152;11.528;2022-11-15T01:36:07;4.10;;;2.73;;
3867;SDS011;1949;48.152;11.528;2022-11-15T01:38:36;4.40;;;3.00;;
3867;SDS011;1949;48.152;11.528;2022-11-15T01:41:02;6.00;;;3.27;;
3867;SDS011;1949;48.152;11.528;2022-11-15T01:43:33;4.83;;;3.07;;
3867;SDS011;1949;48.152;11.528;2022-11-15T01:48:55;4.90;;;2.87;;
3867;SDS011;1949;48.152;11.528;2022-11-15T01:51:28;4.80;;;2.50;;
3867;SDS011;1949;48.152;11.528;2022-11-15T01:53:58;2.40;;;2.00;;
3867;SDS011;1949;48.152;11.528;2022-11-15T01:56:27;2.83;;;2.37;;
3867;SDS011;1949;48.152;11.528;2022-11-15T01:58:57;5.53;;;2.80;;
3867;SDS011;1949;48.152;11.528;2022-11-15T02:01:26;3.87;;;2.70;;
3867;SDS011;1949;48.152;11.528;2022-11-15T02:07:02;3.40;;;2.40;;
3867;SDS011;1949;48.152;11.528;2022-11-15T02:09:29;3.10;;;2.50;;
3867;SDS011;1949;48.152;11.528;2022-11-15T02:11:55;3.03;;;2.30;;
3867;SDS011;1949;48.152;11.528;2022-11-15T02:14:29;10.63;;;3.07;;
3867;SDS011;1949;48.152;11.528;2022-11-15T02:28:16;2.00;;;1.90;;
3867;SDS011;1949;48.152;11.528;2022-11-15T02:31:10;4.27;;;2.40;;
3867;SDS011;1949;48.152;11.528;2022-11-15T02:42:11;3.57;;;2.60;;
3867;SDS011;1949;48.152;11.528;2022-11-15T02:45:17;3.40;;;2.13;;
3867;SDS011;1949;48.152;11.528;2022-11-15T02:47:49;3.47;;;2.43;;
3867;SDS011;1949;48.152;11.528;2022-11-15T02:50:20;2.10;;;1.90;;
3867;SDS011;1949;48.152;11.528;2022-11-15T02:52:49;3.20;;;2.50;;
3867;SDS011;1949;48.152;11.528;2022-11-15T02:55:33;3.47;;;2.30;;
3867;SDS011;1949;48.152;11.528;2022-11-15T03:00:50;5.90;;;2.17;;
3867;SDS011;1949;48.152;11.528;2022-11-15T03:11:24;6.53;;;2.53;;
3867;SDS011;1949;48.152;11.528;2022-11-15T03:13:56;3.60;;;2.10;;
3867;SDS011;1949;48.152;11.528;2022-11-15T03:16:40;2.77;;;1.67;;
3867;SDS011;1949;48.152;11.528;2022-11-15T03:21:50;3.37;;;2.07;;
3867;SDS011;1949;48.152;11.528;2022-11-15T03:24:18;3.43;;;2.20;;
3867;SDS011;1949;48.152;11.528;2022-11-15T03:26:45;5.53;;;2.03;;
3867;SDS011;1949;48.152;11.528;2022-11-15T03:29:19;4.87;;;2.07;;
3867;SDS011;1949;48.152;11.528;2022-11-15T03:31:56;2.20;;;1.90;;
3867;SDS011;1949;48.152;11.528;2022-11-15T03:37:24;4.20;;;3.00;;
3867;SDS011;1949;48.152;11.528;2022-11-15T03:39:57;2.40;;;1.83;;
3867;SDS011;1949;48.152;11.528;2022-11-15T03:42:35;3.40;;;1.60;;
3867;SDS011;1949;48.152;11.528;2022-11-15T03:45:17;2.20;;;1.73;;
3867;SDS011;1949;48.152;11.528;2022-11-15T03:50:21;2.73;;;1.80;;
3867;SDS011;1949;48.152;11.528;2022-11-15T03:52:49;5.00;;;2.30;;
3867;SDS011;1949;48.152;11.528;2022-11-15T03:55:17;2.33;;;2.00;;
3867;SDS011;1949;48.152;11.528;2022-11-15T03:57:46;3.30;;;1.93;;
3867;SDS011;1949;48.152;11.528;2022-11-15T04:00:16;2.60;;;2.10;;
3867;SDS011;1949;48.152;11.528;2022-11-15T04:02:42;5.13;;;2.50;;
3867;SDS011;1949;48.152;11.528;2022-11-15T04:05:08;33.67;;;14.03;;
3867;SDS011;1949;48.152;11.528;2022-11-15T04:07:34;31.57;;;13.80;;
3867;SDS011;1949;48.152;11.528;2022-11-15T04:10:00;48.30;;;22.23;;
3867;SDS011;1949;48.152;11.528;2022-11-15T04:12:36;21.63;;;9.77;;
3867;SDS011;1949;48.152;11.528;2022-11-15T04:15:08;17.60;;;7.83;;
3867;SDS011;1949;48.152;11.528;2022-11-15T04:20:04;1.87;;;1.73;;
3867;SDS011;1949;48.152;11.528;2022-11-15T04:22:54;6.90;;;2.33;;
3867;SDS011;1949;48.152;11.528;2022-11-15T04:25:42;3.23;;;1.77;;
3867;SDS011;1949;48.152;11.528;2022-11-15T04:28:09;3.40;;;2.00;;
3867;SDS011;1949;48.152;11.528;2022-11-15T04:30:45;4.23;;;3.00;;
3867;SDS011;1949;48.152;11.528;2022-11-15T04:33:11;3.70;;;2.43;;
3867;SDS011;1949;48.152;11.528;2022-11-15T04:35:55;3.87;;;1.73;;
3867;SDS011;1949;48.152;11.528;2022-11-15T04:38:46;4.40;;;1.90;;
3867;SDS011;1949;48.152;11.528;2022-11-15T04:47:08;2.83;;;1.70;;
3867;SDS011;1949;48.152;11.528;2022-11-15T04:52:23;4.57;;;2.47;;
3867;SDS011;1949;48.152;11.528;2022-11-15T04:54:51;35.47;;;16.20;;
3867;SDS011;1949;48.152;11.528;2022-11-15T05:02:54;15.63;;;5.87;;
3867;SDS011;1949;48.152;11.528;2022-11-15T05:05:40;5.30;;;2.30;;
3867;SDS011;1949;48.152;11.528;2022-11-15T05:08:07;4.27;;;1.67;;
3867;SDS011;1949;48.152;11.528;2022-11-15T05:13:12;3.77;;;2.07;;
3867;SDS011;1949;48.152;11.528;2022-11-15T05:15:39;4.63;;;2.17;;
3867;SDS011;1949;48.152;11.528;2022-11-15T05:18:16;3.60;;;1.93;;
3867;SDS011;1949;48.152;11.528;2022-11-15T05:23:19;3.33;;;2.40;;
3867;SDS011;1949;48.152;11.528;2022-11-15T05:25:47;2.73;;;2.03;;
3867;SDS011;1949;48.152;11.528;2022-11-15T05:30:49;3.83;;;2.10;;
3867;SDS011;1949;48.152;11.528;2022-11-15T05:33:15;3.80;;;2.13;;
3867;SDS011;1949;48.152;11.528;2022-11-15T05:35:42;4.10;;;2.70;;
3867;SDS011;1949;48.152;11.528;2022-11-15T05:40:59;30.67;;;12.23;;
3867;SDS011;1949;48.152;11.528;2022-11-15T05:43:29;8.60;;;4.40;;
3867;SDS011;1949;48.152;11.528;2022-11-15T05:45:58;17.93;;;7.07;;
3867;SDS011;1949;48.152;11.528;2022-11-15T05:48:25;11.73;;;3.50;;
3867;SDS011;1949;48.152;11.528;2022-11-15T05:50:55;49.17;;;12.43;;
3867;SDS011;1949;48.152;11.528;2022-11-15T05:53:29;12.70;;;6.23;;
3867;SDS011;1949;48.152;11.528;2022-11-15T05:56:08;6.60;;;2.80;;
3867;SDS011;1949;48.152;11.528;2022-11-15T06:01:21;3.03;;;2.20;;
3867;SDS011;1949;48.152;11.528;2022-11-15T06:04:01;5.83;;;2.60;;
3867;SDS011;1949;48.152;11.528;2022-11-15T06:06:31;2.27;;;1.80;;
3867;SDS011;1949;48.152;11.528;2022-11-15T06:11:35;7.63;;;2.57;;
3867;SDS011;1949;48.152;11.528;2022-11-15T06:14:02;10.80;;;2.40;;
3867;SDS011;1949;48.152;11.528;2022-11-15T06:16:28;12.70;;;5.80;;
3867;SDS011;1949;48.152;11.528;2022-11-15T06:19:00;10.93;;;4.10;;
3867;SDS011;1949;48.152;11.528;2022-11-15T06:21:34;5.73;;;2.10;;
3867;SDS011;1949;48.152;11.528;2022-11-15T06:24:02;7.47;;;2.00;;
3867;SDS011;1949;48.152;11.528;2022-11-15T06:26:37;6.47;;;2.40;;
3867;SDS011;1949;48.152;11.528;2022-11-15T06:29:04;6.30;;;2.77;;
3867;SDS011;1949;48.152;11.528;2022-11-15T06:31:30;3.67;;;2.30;;
3867;SDS011;1949;48.152;11.528;2022-11-15T06:34:06;2.50;;;2.20;;
3867;SDS011;1949;48.152;11.528;2022-11-15T06:36:35;5.13;;;2.60;;
3867;SDS011;1949;48.152;11.528;2022-11-15T06:39:05;8.90;;;2.30;;
3867;SDS011;1949;48.152;11.528;2022-11-15T06:41:33;5.77;;;1.80;;
3867;SDS011;1949;48.152;11.528;2022-11-15T06:44:06;6.27;;;2.60;;
3867;SDS011;1949;48.152;11.528;2022-11-15T06:46:40;5.30;;;2.40;;
3867;SDS011;1949;48.152;11.528;2022-11-15T06:49:05;6.33;;;2.27;;
3867;SDS011;1949;48.152;11.528;2022-11-15T06:51:34;7.53;;;2.33;;
3867;SDS011;1949;48.152;11.528;2022-11-15T06:56:30;11.23;;;3.47;;
3867;SDS011;1949;48.152;11.528;2022-11-15T06:59:01;8.37;;;4.03;;
3867;SDS011;1949;48.152;11.528;2022-11-15T07:01:30;11.60;;;3.00;;
3867;SDS011;1949;48.152;11.528;2022-11-15T07:04:06;6.20;;;2.60;;
3867;SDS011;1949;48.152;11.528;2022-11-15T07:09:31;7.30;;;2.67;;
3867;SDS011;1949;48.152;11.528;2022-11-15T07:11:58;5.47;;;2.40;;
3867;SDS011;1949;48.152;11.528;2022-11-15T07:14:25;4.90;;;2.70;;
3867;SDS011;1949;48.152;11.528;2022-11-15T07:17:03;2.73;;;1.93;;
3867;SDS011;1949;48.152;11.528;2022-11-15T07:22:30;8.87;;;2.70;;
3867;SDS011;1949;48.152;11.528;2022-11-15T07:25:02;10.10;;;3.70;;
3867;SDS011;1949;48.152;11.528;2022-11-15T07:27:31;8.07;;;3.13;;
3867;SDS011;1949;48.152;11.528;2022-11-15T07:29:59;5.37;;;3.10;;
3867;SDS011;1949;48.152;11.528;2022-11-15T07:32:25;5.70;;;3.10;;
3867;SDS011;1949;48.152;11.528;2022-11-15T07:37:37;23.83;;;3.27;;
3867;SDS011;1949;48.152;11.528;2022-11-15T07:45:28;11.37;;;2.63;;
3867;SDS011;1949;48.152;11.528;2022-11-15T07:48:05;3.07;;;2.07;;
3867;SDS011;1949;48.152;11.528;2022-11-15T07:53:18;6.07;;;2.87;;
3867;SDS011;1949;48.152;11.528;2022-11-15T07:55:48;4.70;;;2.80;;
3867;SDS011;1949;48.152;11.528;2022-11-15T07:58:32;8.50;;;3.67;;
3867;SDS011;1949;48.152;11.528;2022-11-15T08:03:56;5.10;;;2.53;;
3867;SDS011;1949;48.152;11.528;2022-11-15T08:09:37;16.00;;;4.20;;
3867;SDS011;1949;48.152;11.528;2022-11-15T08:12:14;8.87;;;3.73;;
3867;SDS011;1949;48.152;11.528;2022-11-15T08:14:49;7.77;;;3.20;;
3867;SDS011;1949;48.152;11.528;2022-11-15T08:17:19;14.00;;;4.23;;
3867;SDS011;1949;48.152;11.528;2022-11-15T08:19:45;13.27;;;4.80;;
3867;SDS011;1949;48.152;11.528;2022-11-15T08:25:17;7.40;;;3.70;;
3867;SDS011;1949;48.152;11.528;2022-11-15T08:27:45;4.57;;;2.67;;
3867;SDS011;1949;48.152;11.528;2022-11-15T08:32:53;15.60;;;5.30;;
3867;SDS011;1949;48.152;11.528;2022-11-15T08:35:29;14.83;;;5.00;;
3867;SDS011;1949;48.152;11.528;2022-11-15T08:37:57;10.37;;;4.00;;
3867;SDS011;1949;48.152;11.528;2022-11-15T08:40:32;8.23;;;3.40;;
3867;SDS011;1949;48.152;11.528;2022-11-15T08:42:57;11.20;;;3.90;;
3867;SDS011;1949;48.152;11.528;2022-11-15T08:45:31;11.00;;;3.80;;
3867;SDS011;1949;48.152;11.528;2022-11-15T08:48:00;14.47;;;4.60;;
3867;SDS011;1949;48.152;11.528;2022-11-15T08:50:39;12.03;;;4.07;;
3867;SDS011;1949;48.152;11.528;2022-11-15T08:53:14;5.53;;;3.03;;
3867;SDS011;1949;48.152;11.528;2022-11-15T08:55:46;19.00;;;7.07;;
3867;SDS011;1949;48.152;11.528;2022-11-15T08:58:18;13.40;;;6.13;;
3867;SDS011;1949;48.152;11.528;2022-11-15T09:00:58;10.80;;;4.00;;
3867;SDS011;1949;48.152;11.528;2022-11-15T09:05:56;10.23;;;3.83;;
3867;SDS011;1949;48.152;11.528;2022-11-15T09:11:37;19.23;;;4.90;;
3867;SDS011;1949;48.152;11.528;2022-11-15T09:20:46;9.70;;;4.03;;
3867;SDS011;1949;48.152;11.528;2022-11-15T09:23:22;7.03;;;4.53;;
3867;SDS011;1949;48.152;11.528;2022-11-15T09:32:32;4.90;;;2.87;;
3867;SDS011;1949;48.152;11.528;2022-11-15T09:53:13;29.33;;;12.20;;
3867;SDS011;1949;48.152;11.528;2022-11-15T09:56:25;19.30;;;8.07;;
3867;SDS011;1949;48.152;11.528;2022-11-15T10:12:03;15.47;;;7.20;;
3867;SDS011;1949;48.152;11.528;2022-11-15T10:24:10;13.23;;;4.10;;
3867;SDS011;1949;48.152;11.528;2022-11-15T10:39:30;9.67;;;5.13;;
3867;SDS011;1949;48.152;11.528;2022-11-15T10:57:53;16.20;;;6.43;;
3867;SDS011;1949;48.152;11.528;2022-11-15T11:10:21;35.20;;;14.33;;
3867;SDS011;1949;48.152;11.528;2022-11-15T11:50:01;20.93;;;8.77;;
3867;SDS011;1949;48.152;11.528;2022-11-15T11:59:43;27.90;;;11.53;;
3867;SDS011;1949;48.152;11.528;2022-11-15T12:05:49;29.23;;;9.70;;
3867;SDS011;1949;48.152;11.528;2022-11-15T12:17:43;13.07;;;6.20;;
3867;SDS011;1949;48.152;11.528;2022-11-15T12:30:37;16.93;;;6.67;;
3867;SDS011;1949;48.152;11.528;2022-11-15T12:36:03;13.87;;;6.00;;
3867;SDS011;1949;48.152;11.528;2022-11-15T12:45:24;29.93;;;9.23;;
3867;SDS011;1949;48.152;11.528;2022-11-15T12:51:20;12.20;;;5.97;;
3867;SDS011;1949;48.152;11.528;2022-11-15T13:02:43;11.30;;;6.03;;
3867;SDS011;1949;48.152;11.528;2022-11-15T13:17:36;16.03;;;5.40;;
3867;SDS011;1949;48.152;11.528;2022-11-15T13:36:49;18.00;;;7.70;;
3867;SDS011;1949;48.152;11.528;2022-11-15T13:45:24;4.17;;;2.30;;
3867;SDS011;1949;48.152;11.528;2022-11-15T13:47:52;4.67;;;3.40;;
3867;SDS011;1949;48.152;11.528;2022-11-15T13:50:20;3.83;;;2.47;;
3867;SDS011;1949;48.152;11.528;2022-11-15T13:56:11;5.27;;;2.97;;
3867;SDS011;1949;48.152;11.528;2022-11-15T14:11:34;4.13;;;2.17;;
3867;SDS011;1949;48.152;11.528;2022-11-15T14:20:27;3.63;;;1.93;;
3867;SDS011;1949;48.152;11.528;2022-11-15T14:25:58;6.43;;;2.10;;
3867;SDS011;1949;48.152;11.528;2022-11-15T14:35:09;4.97;;;2.70;;
3867;SDS011;1949;48.152;11.528;2022-11-15T14:40:32;5.47;;;2.73;;
3867;SDS011;1949;48.152;11.528;2022-11-15T14:42:58;6.37;;;3.30;;
3867;SDS011;1949;48.152;11.528;2022-11-15T14:45:26;5.40;;;2.80;;
3867;SDS011;1949;48.152;11.528;2022-11-15T14:47:52;3.27;;;3.00;;
3867;SDS011;1949;48.152;11.528;2022-11-15T14:50:19;3.77;;;2.53;;
3867;SDS011;1949;48.152;11.528;2022-11-15T14:52:46;5.10;;;3.13;;
3867;SDS011;1949;48.152;11.528;2022-11-15T14:58:35;4.40;;;3.30;;
3867;SDS011;1949;48.152;11.528;2022-11-15T15:04:23;4.33;;;2.70;;
3867;SDS011;1949;48.152;11.528;2022-11-15T15:06:48;8.47;;;3.40;;
3867;SDS011;1949;48.152;11.528;2022-11-15T15:09:14;6.57;;;3.50;;
3867;SDS011;1949;48.152;11.528;2022-11-15T15:11:40;9.30;;;3.37;;
3867;SDS011;1949;48.152;11.528;2022-11-15T15:14:05;8.73;;;5.90;;
3867;SDS011;1949;48.152;11.528;2022-11-15T15:16:50;9.73;;;4.27;;
3867;SDS011;1949;48.152;11.528;2022-11-15T15:19:16;7.10;;;4.00;;
3867;SDS011;1949;48.152;11.528;2022-11-15T15:25:07;6.37;;;3.60;;
3867;SDS011;1949;48.152;11.528;2022-11-15T15:30:46;7.47;;;4.30;;
3867;SDS011;1949;48.152;11.528;2022-11-15T15:33:12;6.60;;;4.80;;
3867;SDS011;1949;48.152;11.528;2022-11-15T15:35:38;6.20;;;4.07;;
3867;SDS011;1949;48.152;11.528;2022-11-15T15:44:47;8.57;;;4.80;;
3867;SDS011;1949;48.152;11.528;2022-11-15T15:47:15;6.23;;;3.80;;
3867;SDS011;1949;48.152;11.528;2022-11-15T15:55:45;12.80;;;4.10;;
3867;SDS011;1949;48.152;11.528;2022-11-15T15:58:11;9.67;;;3.90;;
3867;SDS011;1949;48.152;11.528;2022-11-15T16:03:38;10.17;;;5.60;;
3867;SDS011;1949;48.152;11.528;2022-11-15T16:06:03;14.87;;;5.00;;
3867;SDS011;1949;48.152;11.528;2022-11-15T16:08:30;10.80;;;4.30;;
3867;SDS011;1949;48.152;11.528;2022-11-15T16:10:55;11.87;;;4.10;;
3867;SDS011;1949;48.152;11.528;2022-11-15T16:41:03;7.43;;;4.50;;
3867;SDS011;1949;48.152;11.528;2022-11-15T16:59:26;12.43;;;5.67;;
3867;SDS011;1949;48.152;11.528;2022-11-15T17:04:37;8.73;;;4.70;;
3867;SDS011;1949;48.152;11.528;2022-11-15T17:07:07;12.70;;;4.73;;
3867;SDS011;1949;48.152;11.528;2022-11-15T17:20:55;14.33;;;6.50;;
3867;SDS011;1949;48.152;11.528;2022-11-15T17:23:24;17.70;;;8.93;;
3867;SDS011;1949;48.152;11.528;2022-11-15T17:28:41;20.73;;;7.80;;
3867;SDS011;1949;48.152;11.528;2022-11-15T17:31:13;10.43;;;6.00;;
3867;SDS011;1949;48.152;11.528;2022-11-15T17:33:48;15.20;;;6.77;;
3867;SDS011;1949;48.152;11.528;2022-11-15T17:41:52;20.33;;;7.00;;
3867;SDS011;1949;48.152;11.528;2022-11-15T17:44:27;12.67;;;6.33;;
3867;SDS011;1949;48.152;11.528;2022-11-15T17:46:58;15.60;;;7.00;;
3867;SDS011;1949;48.152;11.528;2022-11-15T18:01:32;9.13;;;5.80;;
3867;SDS011;1949;48.152;11.528;2022-11-15T18:06:54;30.00;;;12.43;;
3867;SDS011;1949;48.152;11.528;2022-11-15T18:09:21;17.60;;;7.47;;
3867;SDS011;1949;48.152;11.528;2022-11-15T18:14:20;24.67;;;7.77;;
3867;SDS011;1949;48.152;11.528;2022-11-15T18:16:57;12.13;;;5.70;;
3867;SDS011;1949;48.152;11.528;2022-11-15T18:21:53;17.47;;;6.40;;
3867;SDS011;1949;48.152;11.528;2022-11-15T18:24:30;9.10;;;5.33;;
3867;SDS011;1949;48.152;11.528;2022-11-15T18:26:58;10.83;;;5.63;;
3867;SDS011;1949;48.152;11.528;2022-11-15T18:29:38;14.63;;;5.83;;
3867;SDS011;1949;48.152;11.528;2022-11-15T18:32:05;11.87;;;6.23;;
3867;SDS011;1949;48.152;11.528;2022-11-15T18:34:39;12.23;;;6.03;;
3867;SDS011;1949;48.152;11.528;2022-11-15T18:39:54;20.33;;;5.13;;
3867;SDS011;1949;48.152;11.528;2022-11-15T18:42:20;13.03;;;4.60;;
3867;SDS011;1949;48.152;11.528;2022-11-15T18:45:01;10.97;;;6.00;;
3867;SDS011;1949;48.152;11.528;2022-11-15T18:47:31;11.00;;;5.30;;
3867;SDS011;1949;48.152;11.528;2022-11-15T18:49:58;12.43;;;6.13;;
3867;SDS011;1949;48.152;11.528;2022-11-15T18:52:25;13.20;;;5.47;;
3867;SDS011;1949;48.152;11.528;2022-11-15T18:54:57;13.73;;;5.20;;
3867;SDS011;1949;48.152;11.528;2022-11-15T18:57:34;10.57;;;5.73;;
3867;SDS011;1949;48.152;11.528;2022-11-15T19:05:28;9.70;;;4.77;;
3867;SDS011;1949;48.152;11.528;2022-11-15T19:13:13;8.50;;;4.90;;
3867;SDS011;1949;48.152;11.528;2022-11-15T19:15:41;8.60;;;4.63;;
3867;SDS011;1949;48.152;11.528;2022-11-15T19:18:22;11.40;;;5.73;;
3867;SDS011;1949;48.152;11.528;2022-11-15T19:20:55;15.30;;;5.40;;
3867;SDS011;1949;48.152;11.528;2022-11-15T19:26:46;8.73;;;5.10;;
3867;SDS011;1949;48.152;11.528;2022-11-15T19:29:13;10.57;;;5.13;;
3867;SDS011;1949;48.152;11.528;2022-11-15T19:31:40;12.27;;;5.20;;
3867;SDS011;1949;48.152;11.528;2022-11-15T19:34:13;25.70;;;5.30;;
3867;SDS011;1949;48.152;11.528;2022-11-15T19:36:40;10.50;;;4.70;;
3867;SDS011;1949;48.152;11.528;2022-11-15T19:39:10;10.33;;;5.30;;
3867;SDS011;1949;48.152;11.528;2022-11-15T19:41:38;11.67;;;4.70;;
3867;SDS011;1949;48.152;11.528;2022-11-15T19:44:06;9.80;;;4.50;;
3867;SDS011;1949;48.152;11.528;2022-11-15T19:46:32;14.97;;;5.00;;
3867;SDS011;1949;48.152;11.528;2022-11-15T19:48:58;8.47;;;4.40;;
3867;SDS011;1949;48.152;11.528;2022-11-15T19:51:25;9.10;;;4.60;;
3867;SDS011;1949;48.152;11.528;2022-11-15T19:53:52;14.60;;;5.53;;
3867;SDS011;1949;48.152;11.528;2022-11-15T19:56:29;8.80;;;4.87;;
3867;SDS011;1949;48.152;11.528;2022-11-15T19:58:55;8.03;;;4.57;;
3867;SDS011;1949;48.152;11.528;2022-11-15T20:01:28;11.47;;;5.17;;
3867;SDS011;1949;48.152;11.528;2022-11-15T20:03:56;18.10;;;8.77;;
3867;SDS011;1949;48.152;11.528;2022-11-15T20:06:31;54.93;;;21.43;;
3867;SDS011;1949;48.152;11.528;2022-11-15T20:08:58;37.20;;;17.90;;
3867;SDS011;1949;48.152;11.528;2022-11-15T20:11:24;11.73;;;6.63;;
3867;SDS011;1949;48.152;11.528;2022-11-15T20:13:50;10.53;;;6.00;;
3867;SDS011;1949;48.152;11.528;2022-11-15T20:16:21;8.00;;;4.80;;
3867;SDS011;1949;48.152;11.528;2022-11-15T20:18:47;11.77;;;5.43;;
3867;SDS011;1949;48.152;11.528;2022-11-15T20:23:43;12.30;;;5.30;;
3867;SDS011;1949;48.152;11.528;2022-11-15T20:26:09;9.73;;;4.60;;
3867;SDS011;1949;48.152;11.528;2022-11-15T20:28:36;9.47;;;5.00;;
3867;SDS011;1949;48.152;11.528;2022-11-15T20:31:04;13.37;;;4.80;;
3867;SDS011;1949;48.152;11.528;2022-11-15T20:33:32;7.80;;;4.50;;
3867;SDS011;1949;48.152;11.528;2022-11-15T20:36:02;10.03;;;6.10;;
3867;SDS011;1949;48.152;11.528;2022-11-15T20:38:33;11.33;;;5.60;;
3867;SDS011;1949;48.152;11.528;2022-11-15T20:43:31;17.57;;;6.80;;
3867;SDS011;1949;48.152;11.528;2022-11-15T20:45:57;13.10;;;5.63;;
3867;SDS011;1949;48.152;11.528;2022-11-15T20:48:23;10.47;;;4.87;;
3867;SDS011;1949;48.152;11.528;2022-11-15T20:50:49;11.43;;;4.93;;
3867;SDS011;1949;48.152;11.528;2022-11-15T20:53:16;11.90;;;6.10;;
3867;SDS011;1949;48.152;11.528;2022-11-15T20:55:44;10.40;;;6.40;;
3867;SDS011;1949;48.152;11.528;2022-11-15T20:58:17;8.50;;;5.07;;
3867;SDS011;1949;48.152;11.528;2022-11-15T21:00:43;13.17;;;5.30;;
3867;SDS011;1949;48.152;11.528;2022-11-15T21:03:12;8.73;;;5.17;;
3867;SDS011;1949;48.152;11.528;2022-11-15T21:05:39;10.77;;;6.07;;
3867;SDS011;1949;48.152;11.528;2022-11-15T21:08:17;12.30;;;6.37;;
3867;SDS011;1949;48.152;11.528;2022-11-15T21:10:47;11.53;;;5.70;;
3867;SDS011;1949;48.152;11.528;2022-11-15T21:13:33;11.37;;;5.07;;
3867;SDS011;1949;48.152;11.528;2022-11-15T21:15:59;9.30;;;4.20;;
3867;SDS011;1949;48.152;11.528;2022-11-15T21:18:32;10.40;;;4.93;;
3867;SDS011;1949;48.152;11.528;2022-11-15T21:21:05;11.83;;;5.20;;
3867;SDS011;1949;48.152;11.528;2022-11-15T21:23:31;8.57;;;5.20;;
3867;SDS011;1949;48.152;11.528;2022-11-15T21:26:05;20.13;;;6.10;;
3867;SDS011;1949;48.152;11.528;2022-11-15T21:28:32;12.57;;;5.47;;
3867;SDS011;1949;48.152;11.528;2022-11-15T21:30:58;11.50;;;5.33;;
3867;SDS011;1949;48.152;11.528;2022-11-15T21:33:24;9.03;;;5.03;;
3867;SDS011;1949;48.152;11.528;2022-11-15T21:35:54;9.93;;;4.70;;
3867;SDS011;1949;48.152;11.528;2022-11-15T21:38:24;12.93;;;4.70;;
3867;SDS011;1949;48.152;11.528;2022-11-15T21:40:55;11.87;;;5.10;;
3867;SDS011;1949;48.152;11.528;2022-11-15T21:43:20;10.90;;;4.53;;
3867;SDS011;1949;48.152;11.528;2022-11-15T21:45:59;11.10;;;5.00;;
3867;SDS011;1949;48.152;11.528;2022-11-15T21:48:35;7.07;;;4.43;;
3867;SDS011;1949;48.152;11.528;2022-11-15T21:51:05;12.43;;;6.50;;
3867;SDS011;1949;48.152;11.528;2022-11-15T21:53:33;12.57;;;5.50;;
3867;SDS011;1949;48.152;11.528;2022-11-15T21:56:01;19.37;;;6.00;;
3867;SDS011;1949;48.152;11.528;2022-11-15T21:58:27;12.67;;;5.70;;
3867;SDS011;1949;48.152;11.528;2022-11-15T22:00:54;11.73;;;5.73;;
3867;SDS011;1949;48.152;11.528;2022-11-15T22:03:39;12.37;;;6.10;;
3867;SDS011;1949;48.152;11.528;2022-11-15T22:06:06;10.00;;;5.13;;
3867;SDS011;1949;48.152;11.528;2022-11-15T22:11:03;12.00;;;5.63;;
3867;SDS011;1949;48.152;11.528;2022-11-15T22:13:29;9.97;;;5.93;;
3867;SDS011;1949;48.152;11.528;2022-11-15T22:15:55;9.93;;;5.10;;
3867;SDS011;1949;48.152;11.528;2022-11-15T22:18:22;8.33;;;4.70;;
3867;SDS011;1949;48.152;11.528;2022-11-15T22:23:24;10.67;;;5.73;;
3867;SDS011;1949;48.152;11.528;2022-11-15T22:25:52;8.43;;;5.27;;
3867;SDS011;1949;48.152;11.528;2022-11-15T22:28:24;11.03;;;4.80;;
3867;SDS011;1949;48.152;11.528;2022-11-15T22:30:51;8.87;;;4.37;;
3867;SDS011;1949;48.152;11.528;2022-11-15T22:33:18;9.43;;;4.93;;
3867;SDS011;1949;48.152;11.528;2022-11-15T22:35:48;8.53;;;5.07;;
3867;SDS011;1949;48.152;11.528;2022-11-15T22:38:15;9.37;;;4.07;;
3867;SDS011;1949;48.152;11.528;2022-11-15T22:40:43;11.33;;;5.00;;
3867;SDS011;1949;48.152;11.528;2022-11-15T22:43:09;9.40;;;5.10;;
3867;SDS011;1949;48.152;11.528;2022-11-15T22:48:19;6.90;;;4.50;;
3867;SDS011;1949;48.152;11.528;2022-11-15T22:50:53;5.97;;;4.03;;
3867;SDS011;1949;48.152;11.528;2022-11-15T22:55:49;7.97;;;4.27;;
3867;SDS011;1949;48.152;11.528;2022-11-15T22:58:22;9.47;;;4.50;;
3867;SDS011;1949;48.152;11.528;2022-11-15T23:00:53;10.40;;;4.83;;
3867;SDS011;1949;48.152;11.528;2022-11-15T23:03:21;10.30;;;5.07;;
3867;SDS011;1949;48.152;11.528;2022-11-15T23:05:47;8.60;;;4.90;;
3867;SDS011;1949;48.152;11.528;2022-11-15T23:08:13;8.57;;;4.43;;
3867;SDS011;1949;48.152;11.528;2022-11-15T23:10:47;8.60;;;5.00;;
3867;SDS011;1949;48.152;11.528;2022-11-15T23:13:33;8.47;;;4.60;;
3867;SDS011;1949;48.152;11.528;2022-11-15T23:18:48;9.03;;;5.07;;
3867;SDS011;1949;48.152;11.528;2022-11-15T23:21:17;10.13;;;4.30;;
3867;SDS011;1949;48.152;11.528;2022-11-15T23:24:09;8.87;;;5.27;;
3867;SDS011;1949;48.152;11.528;2022-11-15T23:26:46;10.67;;;4.80;;
3867;SDS011;1949;48.152;11.528;2022-11-15T23:29:14;10.30;;;5.40;;
3867;SDS011;1949;48.152;11.528;2022-11-15T23:31:46;12.33;;;5.80;;
3867;SDS011;1949;48.152;11.528;2022-11-15T23:34:31;8.43;;;4.90;;
3867;SDS011;1949;48.152;11.528;2022-11-15T23:36:59;9.17;;;5.20;;
3867;SDS011;1949;48.152;11.528;2022-11-15T23:39:25;9.23;;;4.80;;
3867;SDS011;1949;48.152;11.528;2022-11-15T23:41:51;11.73;;;5.00;;
3867;SDS011;1949;48.152;11.528;2022-11-15T23:44:26;13.50;;;6.00;;
3867;SDS011;1949;48.152;11.528;2022-11-15T23:46:56;12.40;;;5.53;;
3867;SDS011;1949;48.152;11.528;2022-11-15T23:49:22;11.60;;;5.67;;
3867;SDS011;1949;48.152;11.528;2022-11-15T23:51:48;9.47;;;5.30;;
3867;SDS011;1949;48.152;11.528;2022-11-15T23:54:14;8.83;;;5.10;;